Time;durP1;ratioP1;P1;durP2;ratioP2;P2;SDS_P1;SDS_P2;PMS_P1;PMS_P2;Temp;Humidity;BMP_temperature;BMP_pressure;BME280_temperature;BME280_humidity;BME280_pressure;Samples;Min_cycle;Max_cycle;Signal;HPM_P1;HPM_P2
2022/03/22 00:00:28;;;;;;;1.37;0.50;;;10.50;99.90;;;;;;6121695;23;20257;-93
2022/03/22 00:03:01;;;;;;;0.50;0.33;;;10.40;99.90;;;;;;6146443;23;20182;-93
2022/03/22 00:05:32;;;;;;;1.13;0.40;;;10.40;99.90;;;;;;6121607;23;20607;-93
2022/03/22 00:13:21;;;;;;;0.90;0.30;;;10.20;99.90;;;;;;6148562;23;20263;-92
2022/03/22 00:16:07;;;;;;;1.47;0.47;;;10.20;99.90;;;;;;6124128;23;20186;-93
2022/03/22 00:18:59;;;;;;;0.43;0.30;;;10.30;99.90;;;;;;6147132;23;20202;-93
2022/03/22 00:24:21;;;;;;;0.57;0.40;;;10.20;99.90;;;;;;6127371;23;20177;-93
2022/03/22 00:27:06;;;;;;;0.60;0.33;;;10.20;99.90;;;;;;6105639;23;20178;-94
2022/03/22 00:29:44;;;;;;;0.70;0.70;;;10.20;99.90;;;;;;6147395;23;20189;-93
2022/03/22 00:32:17;;;;;;;0.40;0.40;;;10.20;99.90;;;;;;6147034;23;20174;-92
2022/03/22 00:34:48;;;;;;;2.70;0.50;;;10.20;99.90;;;;;;6146935;23;20182;-92
2022/03/22 00:37:19;;;;;;;2.00;0.50;;;10.10;99.90;;;;;;6146965;23;20237;-93
2022/03/22 00:39:50;;;;;;;1.43;0.50;;;10.00;99.90;;;;;;6122719;23;20214;-93
2022/03/22 00:42:21;;;;;;;1.43;0.40;;;9.90;99.90;;;;;;6148792;23;20250;-93
2022/03/22 00:44:55;;;;;;;0.43;0.40;;;9.80;99.90;;;;;;6153498;23;20183;-94
2022/03/22 00:47:26;;;;;;;0.73;0.37;;;9.80;99.90;;;;;;6153568;23;20178;-92
2022/03/22 00:49:57;;;;;;;0.80;0.50;;;9.70;99.90;;;;;;6153793;23;20178;-92
2022/03/22 00:52:29;;;;;;;1.73;0.60;;;9.70;99.90;;;;;;6153521;23;20174;-92
2022/03/22 00:55:00;;;;;;;0.70;0.60;;;9.60;99.90;;;;;;6152380;23;20221;-93
2022/03/22 00:57:31;;;;;;;2.13;0.60;;;9.70;99.90;;;;;;6125162;23;20189;-93
2022/03/22 01:00:07;;;;;;;0.90;0.53;;;9.70;99.90;;;;;;6147746;23;20217;-94
2022/03/22 01:02:40;;;;;;;0.67;0.50;;;9.70;99.90;;;;;;6147715;23;20182;-93
2022/03/22 01:05:16;;;;;;;1.17;0.50;;;9.70;99.90;;;;;;6125263;23;20232;-93
2022/03/22 01:07:48;;;;;;;0.73;0.60;;;9.70;99.90;;;;;;6139719;23;20353;-86
2022/03/22 01:10:21;;;;;;;1.37;0.73;;;9.60;99.90;;;;;;6121832;23;20171;-94
2022/03/22 01:12:54;;;;;;;1.10;0.73;;;9.50;99.90;;;;;;6119075;23;20175;-93
2022/03/22 01:15:32;;;;;;;2.00;0.87;;;9.50;99.90;;;;;;6119074;23;20183;-93
2022/03/22 01:18:05;;;;;;;2.50;0.70;;;9.50;99.90;;;;;;6117631;23;20179;-94
2022/03/22 01:20:37;;;;;;;1.27;0.80;;;9.50;99.90;;;;;;6117493;23;20203;-91
2022/03/22 01:23:11;;;;;;;2.20;0.90;;;9.50;99.90;;;;;;6118551;23;20258;-93
2022/03/22 01:25:43;;;;;;;1.30;0.70;;;9.60;99.90;;;;;;6119160;23;20183;-92
2022/03/22 01:28:15;;;;;;;0.70;0.70;;;9.50;99.90;;;;;;6119699;23;20199;-93
2022/03/22 01:30:51;;;;;;;0.87;0.70;;;9.50;99.90;;;;;;6099141;23;20163;-92
2022/03/22 01:33:21;;;;;;;0.90;0.90;;;9.50;99.90;;;;;;6123690;23;20166;-92
2022/03/22 01:38:42;;;;;;;1.07;1.00;;;9.50;99.90;;;;;;6121623;23;20211;-92
2022/03/22 01:41:13;;;;;;;0.70;0.70;;;9.40;99.90;;;;;;6122088;23;20198;-93
2022/03/22 01:43:45;;;;;;;1.10;1.00;;;9.50;99.90;;;;;;6121432;23;20179;-92
2022/03/22 01:46:24;;;;;;;2.27;0.83;;;9.50;99.90;;;;;;6115759;23;20199;-93
2022/03/22 01:49:00;;;;;;;3.90;1.37;;;9.40;99.90;;;;;;6114174;23;20298;-92
2022/03/22 01:51:34;;;;;;;1.73;0.93;;;9.40;99.90;;;;;;6091727;23;20203;-94
2022/03/22 01:54:07;;;;;;;2.77;1.13;;;9.40;99.90;;;;;;6140611;23;20204;-90
2022/03/22 01:59:17;;;;;;;1.67;0.83;;;9.40;99.90;;;;;;6183843;23;20173;-93
2022/03/22 02:07:17;;;;;;;3.33;2.10;;;9.40;99.90;;;;;;6169834;23;20192;-87
2022/03/22 02:09:47;;;;;;;2.70;1.47;;;9.40;99.90;;;;;;6128131;23;20190;-92
2022/03/22 02:12:19;;;;;;;3.53;1.23;;;9.40;99.90;;;;;;6145068;23;20240;-93
2022/03/22 02:14:51;;;;;;;3.43;1.90;;;9.40;99.90;;;;;;6187791;23;20161;-92
2022/03/22 02:17:23;;;;;;;3.53;2.07;;;9.40;99.90;;;;;;6212024;23;20221;-95
2022/03/22 02:20:01;;;;;;;3.53;2.00;;;9.40;99.90;;;;;;6212756;23;20195;-93
2022/03/22 02:22:48;;;;;;;4.17;2.70;;;9.40;99.90;;;;;;6188061;23;20229;-92
2022/03/22 02:25:23;;;;;;;5.27;2.77;;;9.30;99.90;;;;;;6212172;23;20181;-90
2022/03/22 02:30:37;;;;;;;7.60;3.60;;;9.30;99.90;;;;;;6184405;23;20255;-94
2022/03/22 02:33:10;;;;;;;5.03;3.53;;;9.20;99.90;;;;;;6181285;23;20213;-93
2022/03/22 02:35:44;;;;;;;6.07;3.20;;;9.20;99.90;;;;;;6152556;23;20229;-93
2022/03/22 02:38:17;;;;;;;5.30;3.27;;;9.20;99.90;;;;;;6150583;23;20229;-93
2022/03/22 02:40:52;;;;;;;5.87;3.70;;;9.10;99.90;;;;;;6149891;23;20208;-93
2022/03/22 02:43:24;;;;;;;6.90;2.97;;;9.10;99.90;;;;;;6147846;23;20202;-92
2022/03/22 02:45:55;;;;;;;5.50;3.53;;;9.10;99.90;;;;;;6151335;23;20179;-94
2022/03/22 02:57:11;;;;;;;8.07;4.50;;;9.10;99.90;;;;;;6141541;23;20181;-90
2022/03/22 02:59:42;;;;;;;6.87;3.50;;;9.20;99.90;;;;;;6149253;23;20173;-92
2022/03/22 03:02:13;;;;;;;6.63;3.90;;;9.20;99.90;;;;;;6149802;23;20198;-93
2022/03/22 03:04:45;;;;;;;7.47;4.33;;;9.20;99.90;;;;;;6152519;23;20211;-93
2022/03/22 03:07:18;;;;;;;5.37;4.50;;;9.10;99.90;;;;;;6133934;23;20200;-92
2022/03/22 03:09:49;;;;;;;6.43;4.47;;;9.00;99.90;;;;;;6211611;23;20164;-91
2022/03/22 03:12:24;;;;;;;5.10;4.33;;;9.00;99.90;;;;;;6207093;23;20239;-90
2022/03/22 03:14:56;;;;;;;7.17;4.80;;;9.00;99.90;;;;;;6211574;23;20177;-92
2022/03/22 03:17:27;;;;;;;5.70;4.57;;;9.00;99.90;;;;;;6211076;23;20169;-91
2022/03/22 03:19:59;;;;;;;7.47;5.57;;;9.00;99.90;;;;;;6211406;23;20235;-91
2022/03/22 03:22:30;;;;;;;5.67;4.90;;;9.00;99.90;;;;;;6210688;23;20193;-93
2022/03/22 03:25:02;;;;;;;6.93;5.63;;;9.00;99.90;;;;;;6208868;23;20170;-92
2022/03/22 03:27:37;;;;;;;7.93;5.37;;;9.00;99.90;;;;;;6206440;23;20573;-92
2022/03/22 03:30:17;;;;;;;6.43;5.73;;;9.00;99.90;;;;;;6208960;23;20177;-93
2022/03/22 03:32:48;;;;;;;7.47;5.70;;;9.00;99.90;;;;;;6210927;23;20183;-92
2022/03/22 03:35:20;;;;;;;5.70;5.20;;;9.00;99.90;;;;;;6209303;23;20191;-92
2022/03/22 03:37:52;;;;;;;5.63;4.80;;;9.00;99.90;;;;;;6206562;23;20267;-93
2022/03/22 03:41:53;;;;;;;7.10;5.00;;;9.00;99.90;;;;;;6201850;23;20165;-92
2022/03/22 03:43:16;;;;;;;5.80;5.30;;;9.00;99.90;;;;;;6200175;23;20221;-93
2022/03/22 03:48:37;;;;;;;6.83;6.23;;;9.10;99.90;;;;;;6201270;23;20188;-92
2022/03/22 03:51:08;;;;;;;7.83;5.67;;;9.10;99.90;;;;;;6212622;23;20181;-92
2022/03/22 03:53:39;;;;;;;6.73;5.90;;;9.00;99.90;;;;;;6209049;23;20191;-93
2022/03/22 03:56:10;;;;;;;8.57;7.10;;;9.00;99.90;;;;;;6210189;23;20177;-92
2022/03/22 03:58:44;;;;;;;7.73;7.03;;;9.00;99.90;;;;;;6206609;23;20189;-92
2022/03/22 04:01:14;;;;;;;8.90;8.07;;;9.00;99.90;;;;;;6208807;23;20193;-93
2022/03/22 04:03:47;;;;;;;9.10;8.10;;;9.00;99.90;;;;;;6211849;23;20528;-92
2022/03/22 04:06:19;;;;;;;9.53;8.53;;;9.00;99.90;;;;;;6213931;23;20176;-92
2022/03/22 04:08:51;;;;;;;9.70;8.73;;;9.00;99.90;;;;;;6209442;23;20190;-92
2022/03/22 04:11:32;;;;;;;9.80;8.80;;;9.00;99.90;;;;;;6188577;23;20191;-92
2022/03/22 04:14:06;;;;;;;10.60;8.90;;;9.00;99.90;;;;;;6210380;23;20177;-94
2022/03/22 04:16:38;;;;;;;10.73;9.63;;;9.00;99.90;;;;;;6207498;23;20191;-93
2022/03/22 04:19:10;;;;;;;11.23;9.77;;;9.00;99.90;;;;;;6199139;23;20165;-93
2022/03/22 04:21:42;;;;;;;11.27;10.17;;;9.10;99.90;;;;;;6193953;23;20209;-93
2022/03/22 04:24:14;;;;;;;11.23;10.03;;;9.00;99.90;;;;;;6194041;23;20176;-93
2022/03/22 04:26:46;;;;;;;11.33;10.20;;;9.00;99.90;;;;;;6201766;23;20169;-93
2022/03/22 04:34:57;;;;;;;14.53;10.90;;;9.00;99.90;;;;;;6213517;23;20180;-92
2022/03/22 04:37:28;;;;;;;12.60;11.03;;;9.00;99.90;;;;;;6208794;23;20619;-93
2022/03/22 04:40:00;;;;;;;14.93;10.83;;;9.00;99.90;;;;;;6201357;23;20177;-95
2022/03/22 04:42:32;;;;;;;14.30;10.17;;;9.00;99.90;;;;;;6200395;23;20201;-94
2022/03/22 04:45:13;;;;;;;14.07;10.63;;;9.00;99.90;;;;;;6207779;23;20170;-93
2022/03/22 04:47:45;;;;;;;11.07;9.60;;;9.00;99.90;;;;;;6204308;23;20184;-93
2022/03/22 04:50:18;;;;;;;13.47;9.67;;;9.00;99.90;;;;;;6206327;23;20170;-93
2022/03/22 04:58:36;;;;;;;7.20;6.40;;;9.10;99.90;;;;;;6083110;23;20183;-92
2022/03/22 05:01:09;;;;;;;6.50;5.70;;;9.10;99.90;;;;;;6174134;23;20636;-93
2022/03/22 05:03:39;;;;;;;6.63;4.80;;;9.10;99.90;;;;;;6193006;23;20181;-92
2022/03/22 05:06:28;;;;;;;5.47;4.90;;;9.10;99.90;;;;;;6199308;23;20181;-92
2022/03/22 05:08:59;;;;;;;5.33;4.70;;;9.10;99.90;;;;;;6198367;23;20619;-93
2022/03/22 05:11:30;;;;;;;6.00;4.77;;;9.10;99.90;;;;;;6198556;23;20205;-93
2022/03/22 05:14:15;;;;;;;4.90;4.40;;;9.10;99.90;;;;;;6212051;23;20188;-91
2022/03/22 05:16:48;;;;;;;5.27;4.70;;;9.00;99.90;;;;;;6211025;23;20220;-92
2022/03/22 05:19:20;;;;;;;5.53;5.03;;;9.10;99.90;;;;;;6198725;23;20204;-92
2022/03/22 05:21:51;;;;;;;5.10;4.50;;;9.00;99.90;;;;;;6195345;23;20216;-94
2022/03/22 05:24:28;;;;;;;5.50;5.00;;;9.10;99.90;;;;;;6194213;23;20247;-92
2022/03/22 05:27:02;;;;;;;5.20;4.63;;;9.10;99.90;;;;;;6197514;23;20168;-94
2022/03/22 05:29:33;;;;;;;5.93;4.93;;;9.10;99.90;;;;;;6204087;23;20209;-93
2022/03/22 05:32:07;;;;;;;4.97;4.47;;;9.10;99.90;;;;;;6196896;23;20197;-93
2022/03/22 05:34:38;;;;;;;6.33;4.93;;;9.10;99.90;;;;;;6205772;23;20168;-93
2022/03/22 05:37:10;;;;;;;5.50;4.83;;;9.10;99.90;;;;;;6193624;23;20192;-93
2022/03/22 05:39:46;;;;;;;6.30;4.77;;;9.10;99.90;;;;;;6191656;23;20252;-93
2022/03/22 05:42:17;;;;;;;7.20;5.37;;;9.10;99.90;;;;;;6192832;23;20207;-93
2022/03/22 05:44:49;;;;;;;6.47;5.40;;;9.10;99.90;;;;;;6192998;23;20192;-93
2022/03/22 05:47:22;;;;;;;6.17;5.57;;;9.10;99.90;;;;;;6192166;23;20192;-94
2022/03/22 05:49:55;;;;;;;7.30;6.13;;;9.10;99.90;;;;;;6192638;23;20197;-94
2022/03/22 05:52:26;;;;;;;5.90;5.30;;;9.00;99.90;;;;;;6191116;23;20177;-94
2022/03/22 05:54:57;;;;;;;6.77;5.40;;;9.10;99.90;;;;;;6191318;23;20169;-94
2022/03/22 05:57:28;;;;;;;7.13;5.77;;;9.10;99.90;;;;;;6190706;23;20181;-92
2022/03/22 05:59:58;;;;;;;10.30;6.10;;;9.10;99.90;;;;;;6192313;23;20170;-93
2022/03/22 06:02:38;;;;;;;6.60;5.90;;;9.10;99.90;;;;;;6194208;23;20200;-92
2022/03/22 06:05:11;;;;;;;7.40;5.27;;;9.10;99.90;;;;;;6194155;23;20220;-91
2022/03/22 06:07:43;;;;;;;5.97;5.10;;;9.10;99.90;;;;;;6191066;23;20322;-92
2022/03/22 06:10:15;;;;;;;6.30;5.63;;;9.10;99.90;;;;;;6190055;23;20204;-93
2022/03/22 06:12:51;;;;;;;6.40;5.80;;;9.10;99.90;;;;;;6196335;23;20213;-93
2022/03/22 06:18:19;;;;;;;8.70;6.30;;;9.10;99.90;;;;;;6194123;23;20208;-92
2022/03/22 06:20:51;;;;;;;6.83;6.00;;;9.10;99.90;;;;;;6200197;23;20187;-92
2022/03/22 06:23:23;;;;;;;7.77;6.00;;;9.10;99.90;;;;;;6205131;23;20213;-92
2022/03/22 06:25:54;;;;;;;5.80;5.03;;;9.10;99.90;;;;;;6199223;23;20189;-92
2022/03/22 06:28:25;;;;;;;6.47;5.27;;;9.10;99.90;;;;;;6194277;23;20200;-92
2022/03/22 06:31:09;;;;;;;7.23;5.80;;;9.10;99.90;;;;;;6205154;23;20177;-91
2022/03/22 06:33:42;;;;;;;6.93;5.93;;;9.10;99.90;;;;;;6203135;23;20177;-92
2022/03/22 06:36:14;;;;;;;6.90;5.97;;;9.00;99.90;;;;;;6207030;23;20179;-92
2022/03/22 06:38:46;;;;;;;6.60;5.43;;;9.00;99.90;;;;;;6205445;23;20158;-91
2022/03/22 06:41:16;;;;;;;7.30;5.93;;;9.10;99.90;;;;;;6206042;23;20177;-92
2022/03/22 06:43:47;;;;;;;10.63;7.60;;;9.00;99.90;;;;;;6196003;23;20204;-93
2022/03/22 06:46:32;;;;;;;8.77;5.63;;;9.00;99.90;;;;;;6203905;23;20184;-92
2022/03/22 06:49:06;;;;;;;6.40;5.37;;;9.10;99.90;;;;;;6210365;23;20157;-93
2022/03/22 06:51:37;;;;;;;5.70;5.10;;;9.10;99.90;;;;;;6203682;23;20172;-92
2022/03/22 06:54:09;;;;;;;7.00;5.23;;;9.10;99.90;;;;;;6197817;23;20181;-91
2022/03/22 06:56:40;;;;;;;6.03;5.37;;;9.10;99.90;;;;;;6199184;23;20173;-92
2022/03/22 06:59:12;;;;;;;6.00;5.10;;;9.00;99.90;;;;;;6199655;23;20173;-94
2022/03/22 07:01:44;;;;;;;6.60;4.80;;;9.00;99.90;;;;;;6195149;23;20541;-93
2022/03/22 07:04:20;;;;;;;5.53;4.67;;;9.10;99.90;;;;;;6198092;23;20281;-93
2022/03/22 07:06:51;;;;;;;5.50;4.50;;;9.10;99.90;;;;;;6192301;23;20177;-92
2022/03/22 07:09:22;;;;;;;6.30;4.77;;;9.00;99.90;;;;;;6196844;23;20188;-93
2022/03/22 07:11:55;;;;;;;5.17;4.57;;;9.00;99.90;;;;;;6194608;23;20196;-94
2022/03/22 07:14:28;;;;;;;5.93;4.50;;;9.00;99.90;;;;;;6198340;23;20181;-93
2022/03/22 07:16:59;;;;;;;5.83;4.07;;;9.10;99.90;;;;;;6199109;23;20180;-95
2022/03/22 07:19:33;;;;;;;4.07;3.67;;;9.10;99.90;;;;;;6198680;23;20503;-94
2022/03/22 07:22:05;;;;;;;4.63;3.77;;;9.10;99.90;;;;;;6196936;23;20239;-92
2022/03/22 07:24:36;;;;;;;3.93;3.37;;;9.10;99.90;;;;;;6213417;23;20197;-93
2022/03/22 07:27:08;;;;;;;5.20;3.40;;;9.10;99.90;;;;;;6212453;23;20183;-94
2022/03/22 07:29:39;;;;;;;4.93;3.23;;;9.10;99.90;;;;;;6206321;23;20169;-89
2022/03/22 07:32:11;;;;;;;4.90;3.00;;;9.10;99.90;;;;;;6176163;23;20198;-95
2022/03/22 07:34:43;;;;;;;4.20;3.30;;;9.00;99.90;;;;;;6141045;23;20210;-93
2022/03/22 07:37:15;;;;;;;4.63;3.60;;;9.10;99.90;;;;;;6150236;23;20170;-92
2022/03/22 07:39:46;;;;;;;5.70;3.50;;;9.10;99.90;;;;;;6119664;23;20170;-93
2022/03/22 07:42:17;;;;;;;3.90;2.73;;;9.10;99.90;;;;;;6144542;23;20226;-94
2022/03/22 07:44:48;;;;;;;3.77;3.13;;;9.10;99.90;;;;;;6147100;23;20199;-93
2022/03/22 07:47:19;;;;;;;3.87;3.20;;;9.10;99.90;;;;;;6147710;23;20178;-92
2022/03/22 07:55:28;;;;;;;2.80;2.47;;;9.00;99.90;;;;;;6147425;23;20166;-93
2022/03/22 07:58:00;;;;;;;3.17;2.87;;;9.00;99.90;;;;;;6142014;23;20588;-93
2022/03/22 08:00:31;;;;;;;4.00;3.10;;;9.00;99.90;;;;;;6142573;23;20197;-93
2022/03/22 08:03:04;;;;;;;4.23;3.20;;;9.10;99.90;;;;;;6146329;23;20245;-93
2022/03/22 08:05:39;;;;;;;3.27;2.97;;;9.00;99.90;;;;;;6147653;23;20178;-94
2022/03/22 08:08:14;;;;;;;3.50;3.03;;;9.00;99.90;;;;;;6148134;23;20175;-93
2022/03/22 08:11:05;;;;;;;3.90;2.90;;;9.00;99.90;;;;;;6121253;23;20175;-93
2022/03/22 08:13:36;;;;;;;3.17;2.63;;;9.00;99.90;;;;;;6146002;23;20171;-94
2022/03/22 08:16:20;;;;;;;5.03;3.07;;;8.90;99.90;;;;;;6138167;23;20237;-93
2022/03/22 08:18:51;;;;;;;3.50;2.83;;;8.90;99.90;;;;;;6139822;23;20205;-94
2022/03/22 08:21:25;;;;;;;3.40;2.70;;;8.90;99.90;;;;;;6117224;23;20170;-93
2022/03/22 08:23:57;;;;;;;3.50;2.60;;;8.90;99.90;;;;;;6143537;23;20198;-94
2022/03/22 08:26:28;;;;;;;3.33;2.73;;;9.00;99.90;;;;;;6147692;23;20171;-94
2022/03/22 08:28:58;;;;;;;2.80;2.20;;;8.90;99.90;;;;;;6142784;23;20174;-93
2022/03/22 08:31:29;;;;;;;2.20;2.00;;;8.90;99.90;;;;;;6123327;23;20175;-94
2022/03/22 08:34:05;;;;;;;2.80;1.90;;;8.90;99.90;;;;;;6122170;23;20189;-92
2022/03/22 08:36:38;;;;;;;1.70;1.60;;;8.90;99.90;;;;;;6146039;23;20185;-93
2022/03/22 08:39:11;;;;;;;1.67;1.57;;;8.90;99.90;;;;;;6145638;23;20514;-94
2022/03/22 08:41:47;;;;;;;3.07;2.10;;;9.00;99.90;;;;;;6147986;23;20174;-93
2022/03/22 08:44:18;;;;;;;3.53;1.97;;;9.00;99.90;;;;;;6147694;23;20194;-93
2022/03/22 08:46:51;;;;;;;3.07;2.20;;;9.00;99.90;;;;;;6151565;23;20189;-92
2022/03/22 08:49:22;;;;;;;3.20;2.20;;;9.00;99.90;;;;;;6150217;23;20178;-93
2022/03/22 08:51:54;;;;;;;3.97;2.10;;;9.00;99.90;;;;;;6151235;23;20166;-93
2022/03/22 08:54:25;;;;;;;2.33;1.90;;;8.90;99.90;;;;;;6147463;23;20332;-94
2022/03/22 08:56:57;;;;;;;3.17;2.13;;;8.90;99.90;;;;;;6121551;23;20602;-93
2022/03/22 08:59:29;;;;;;;2.30;1.80;;;9.00;99.90;;;;;;6146519;23;20198;-94
2022/03/22 09:02:01;;;;;;;2.50;2.00;;;8.90;99.90;;;;;;6095469;23;20174;-93
2022/03/22 09:07:23;;;;;;;3.90;2.00;;;8.90;99.90;;;;;;6141731;23;20215;-90
2022/03/22 09:09:54;;;;;;;2.77;2.40;;;9.00;99.90;;;;;;6150804;23;20177;-93
2022/03/22 09:12:26;;;;;;;1.80;1.70;;;8.90;99.90;;;;;;6152977;23;20193;-94
2022/03/22 09:14:58;;;;;;;1.57;1.40;;;8.90;99.90;;;;;;6127657;23;20181;-94
2022/03/22 09:17:29;;;;;;;2.50;1.20;;;8.90;99.90;;;;;;6152152;23;20166;-94
2022/03/22 09:20:01;;;;;;;0.90;0.90;;;8.90;99.90;;;;;;6152938;23;20171;-93
2022/03/22 09:22:34;;;;;;;0.90;0.80;;;9.00;99.90;;;;;;6149946;23;20175;-93
2022/03/22 09:25:07;;;;;;;0.97;0.87;;;8.90;99.90;;;;;;6133378;23;20240;-93
2022/03/22 09:27:39;;;;;;;1.17;0.80;;;8.90;99.90;;;;;;6107565;23;20189;-93
2022/03/22 09:30:11;;;;;;;1.83;0.70;;;8.90;99.90;;;;;;6134382;23;20324;-93
2022/03/22 09:32:44;;;;;;;0.80;0.80;;;8.90;99.90;;;;;;6137462;23;20163;-94
2022/03/22 09:35:19;;;;;;;0.67;0.63;;;8.90;99.90;;;;;;6126531;23;20190;-93
2022/03/22 09:37:52;;;;;;;1.13;0.73;;;8.90;99.90;;;;;;6151831;23;20197;-94
2022/03/22 09:40:25;;;;;;;1.57;0.80;;;8.90;99.90;;;;;;6143204;23;20166;-94
2022/03/22 09:42:56;;;;;;;3.03;0.70;;;9.00;99.90;;;;;;6151615;23;20186;-94
2022/03/22 09:45:29;;;;;;;2.27;0.83;;;9.00;99.90;;;;;;6152472;23;20191;-94
2022/03/22 09:48:02;;;;;;;1.07;0.70;;;9.00;99.90;;;;;;6152158;23;20174;-94
2022/03/22 09:53:25;;;;;;;0.67;0.60;;;9.00;99.90;;;;;;6107245;23;20212;-92
2022/03/22 09:55:58;;;;;;;0.77;0.70;;;9.00;99.90;;;;;;6153282;23;20172;-94
2022/03/22 09:58:29;;;;;;;0.90;0.70;;;9.00;99.90;;;;;;6137362;23;20166;-94
2022/03/22 10:01:01;;;;;;;1.23;0.60;;;9.00;99.90;;;;;;6133805;23;20186;-94
2022/03/22 10:03:32;;;;;;;0.53;0.50;;;9.00;99.90;;;;;;6108735;23;20454;-93
2022/03/22 10:06:06;;;;;;;2.03;0.60;;;9.10;99.90;;;;;;6133289;23;20183;-93
2022/03/22 10:08:51;;;;;;;0.60;0.60;;;9.10;99.90;;;;;;6136898;23;20214;-95
2022/03/22 10:11:22;;;;;;;0.90;0.50;;;9.20;99.90;;;;;;6151528;23;20262;-92
2022/03/22 10:13:55;;;;;;;1.13;0.50;;;9.20;99.90;;;;;;6151710;23;20222;-93
2022/03/22 10:16:25;;;;;;;3.10;0.50;;;9.20;99.90;;;;;;6151858;23;20225;-93
2022/03/22 10:18:56;;;;;;;2.93;0.83;;;9.20;99.90;;;;;;6150868;23;20159;-93
2022/03/22 10:21:28;;;;;;;2.80;0.70;;;9.20;99.90;;;;;;6152384;23;20210;-92
2022/03/22 10:24:02;;;;;;;0.70;0.70;;;9.20;99.90;;;;;;6111499;23;20171;-94
2022/03/22 10:26:36;;;;;;;0.70;0.70;;;9.10;99.90;;;;;;6133143;23;20174;-92
2022/03/22 10:29:08;;;;;;;1.43;0.70;;;9.00;99.90;;;;;;6131816;23;20213;-92
2022/03/22 10:31:40;;;;;;;0.73;0.73;;;9.10;99.90;;;;;;6131970;23;20206;-93
2022/03/22 10:34:12;;;;;;;2.33;0.77;;;9.10;99.90;;;;;;6131129;23;20182;-93
2022/03/22 10:36:44;;;;;;;0.93;0.80;;;9.10;99.90;;;;;;6132151;23;20170;-93
2022/03/22 10:39:16;;;;;;;2.40;0.90;;;9.10;99.90;;;;;;6131445;23;20233;-93
2022/03/22 10:41:48;;;;;;;1.70;0.80;;;9.00;99.90;;;;;;6131478;23;20186;-92
2022/03/22 10:44:21;;;;;;;0.87;0.80;;;9.00;99.90;;;;;;6106083;23;20190;-93
2022/03/22 10:46:53;;;;;;;1.50;0.50;;;9.10;99.90;;;;;;6106161;23;20183;-93
2022/03/22 10:49:27;;;;;;;1.00;0.80;;;9.00;99.90;;;;;;6131488;23;20177;-92
2022/03/22 10:52:19;;;;;;;0.90;0.60;;;9.10;99.90;;;;;;6132029;23;20257;-93
2022/03/22 10:54:51;;;;;;;2.63;0.77;;;9.10;99.90;;;;;;6133709;23;20193;-94
2022/03/22 10:57:32;;;;;;;1.97;0.80;;;9.10;99.90;;;;;;6109338;23;20174;-94
2022/03/22 11:00:05;;;;;;;2.40;0.93;;;9.10;99.90;;;;;;6106444;23;20227;-94
2022/03/22 11:02:39;;;;;;;2.70;0.97;;;9.10;99.90;;;;;;6132283;23;20178;-93
2022/03/22 11:05:11;;;;;;;2.83;0.80;;;9.10;99.90;;;;;;6131480;23;20236;-94
2022/03/22 11:07:43;;;;;;;0.83;0.80;;;9.10;99.90;;;;;;6131365;23;20213;-93
2022/03/22 11:10:17;;;;;;;1.53;1.03;;;9.10;99.90;;;;;;6106813;23;20262;-93
2022/03/22 11:12:49;;;;;;;2.30;1.23;;;9.10;99.90;;;;;;6130759;23;20198;-94
2022/03/22 11:15:22;;;;;;;1.00;0.80;;;9.10;99.90;;;;;;6131180;23;20484;-93
2022/03/22 11:17:54;;;;;;;1.43;0.93;;;9.10;99.90;;;;;;6106234;23;20204;-93
2022/03/22 11:20:27;;;;;;;1.63;1.10;;;9.00;99.90;;;;;;6142153;23;20194;-92
2022/03/22 11:23:00;;;;;;;1.13;1.03;;;9.00;99.90;;;;;;6151190;23;20162;-94
2022/03/22 11:25:34;;;;;;;1.10;1.03;;;9.10;99.90;;;;;;6145382;23;20198;-93
2022/03/22 11:28:07;;;;;;;3.80;1.40;;;9.10;99.90;;;;;;6130814;23;20182;-93
2022/03/22 11:30:41;;;;;;;2.80;1.70;;;9.00;99.90;;;;;;6131200;23;20229;-94
2022/03/22 11:36:14;;;;;;;1.80;1.10;;;9.00;99.90;;;;;;6131264;23;20174;-92
2022/03/22 11:38:47;;;;;;;0.70;0.70;;;9.00;99.90;;;;;;6130086;23;20186;-93
2022/03/22 11:44:18;;;;;;;1.57;0.70;;;9.00;99.90;;;;;;6135036;23;20171;-93
2022/03/22 11:50:01;;;;;;;1.20;0.60;;;9.00;99.90;;;;;;6093107;23;20164;-93
2022/03/22 11:52:40;;;;;;;0.53;0.50;;;9.00;99.90;;;;;;6052002;23;20183;-92
2022/03/22 11:55:14;;;;;;;0.70;0.40;;;9.00;99.90;;;;;;6089555;23;20176;-92
2022/03/22 11:57:48;;;;;;;0.77;0.60;;;9.00;99.90;;;;;;6079568;23;20231;-92
2022/03/22 12:00:20;;;;;;;0.40;0.40;;;8.90;99.90;;;;;;6073181;23;20191;-93
2022/03/22 12:02:57;;;;;;;2.07;0.70;;;8.90;99.90;;;;;;6073312;23;20318;-92
2022/03/22 12:05:29;;;;;;;0.67;0.60;;;8.90;99.90;;;;;;6048874;23;20195;-93
2022/03/22 12:08:07;;;;;;;0.57;0.50;;;8.80;99.90;;;;;;6072096;23;20255;-93
2022/03/22 12:10:41;;;;;;;0.43;0.30;;;8.90;99.90;;;;;;6053476;23;20190;-93
2022/03/22 12:13:15;;;;;;;0.50;0.50;;;8.90;99.90;;;;;;6074987;23;20235;-93
2022/03/22 12:15:58;;;;;;;3.83;0.50;;;8.90;99.90;;;;;;6074550;23;20202;-93
2022/03/22 12:18:31;;;;;;;0.40;0.40;;;8.90;99.90;;;;;;6051520;23;20176;-93
2022/03/22 12:21:02;;;;;;;0.53;0.50;;;8.90;99.90;;;;;;6077120;23;20183;-91
2022/03/22 12:23:37;;;;;;;0.43;0.37;;;8.90;99.90;;;;;;6074899;23;20168;-93
2022/03/22 12:26:10;;;;;;;0.60;0.40;;;8.90;99.90;;;;;;6077047;23;20215;-93
2022/03/22 12:28:51;;;;;;;1.80;0.53;;;8.90;99.90;;;;;;6074143;23;20180;-94
2022/03/22 12:31:23;;;;;;;0.37;0.30;;;8.90;99.90;;;;;;6076305;23;20575;-93
2022/03/22 12:33:58;;;;;;;1.30;0.63;;;8.90;99.90;;;;;;6073552;23;20232;-93
2022/03/22 12:36:29;;;;;;;4.30;0.40;;;8.90;99.90;;;;;;6073970;23;20234;-93
2022/03/22 12:39:01;;;;;;;2.50;0.40;;;8.90;99.90;;;;;;6073960;23;20187;-93
2022/03/22 12:41:33;;;;;;;0.90;0.33;;;8.90;99.90;;;;;;6073404;23;20179;-93
2022/03/22 12:44:06;;;;;;;0.40;0.40;;;8.90;99.90;;;;;;6076335;23;20206;-93
2022/03/22 12:46:38;;;;;;;2.40;0.40;;;8.90;99.90;;;;;;6075784;23;20591;-93
2022/03/22 12:49:09;;;;;;;0.37;0.37;;;8.90;99.90;;;;;;6101240;23;20187;-93
2022/03/22 12:51:41;;;;;;;1.37;0.30;;;9.00;99.90;;;;;;6103353;23;20179;-93
2022/03/22 12:54:16;;;;;;;0.70;0.60;;;9.00;99.90;;;;;;6103880;23;20171;-94
2022/03/22 12:56:49;;;;;;;0.40;0.40;;;9.00;99.90;;;;;;6102417;23;20191;-93
2022/03/22 12:59:30;;;;;;;0.50;0.40;;;9.00;99.90;;;;;;6103314;23;20496;-93
2022/03/22 13:02:05;;;;;;;0.60;0.40;;;9.00;99.90;;;;;;6103055;23;20250;-93
2022/03/22 13:04:46;;;;;;;6.63;0.73;;;9.00;99.90;;;;;;6103177;23;20254;-94
2022/03/22 13:07:21;;;;;;;0.70;0.67;;;9.00;99.90;;;;;;6102275;23;20935;-94
2022/03/22 13:12:44;;;;;;;0.70;0.70;;;9.10;99.90;;;;;;6102635;23;20175;-94
2022/03/22 13:15:18;;;;;;;0.70;0.70;;;9.00;99.90;;;;;;6102668;23;20179;-94
2022/03/22 13:17:52;;;;;;;0.60;0.60;;;9.00;99.90;;;;;;6102589;23;20173;-93
2022/03/22 13:20:27;;;;;;;1.17;0.60;;;9.00;99.90;;;;;;6101798;23;20185;-93
2022/03/22 13:23:00;;;;;;;0.60;0.60;;;9.00;99.90;;;;;;6106776;23;20178;-93
2022/03/22 13:25:34;;;;;;;0.60;0.60;;;9.00;99.90;;;;;;6113671;23;20171;-93
2022/03/22 13:28:09;;;;;;;0.60;0.60;;;9.10;99.90;;;;;;6107895;23;20514;-94
2022/03/22 13:30:44;;;;;;;0.70;0.60;;;9.00;99.90;;;;;;6116212;23;20179;-94
2022/03/22 13:33:17;;;;;;;0.50;0.50;;;9.00;99.90;;;;;;6121566;23;20167;-92
2022/03/22 13:35:55;;;;;;;0.60;0.60;;;9.10;99.90;;;;;;6123198;23;20167;-94
2022/03/22 13:38:27;;;;;;;0.70;0.70;;;9.00;99.90;;;;;;6121513;23;20159;-92
2022/03/22 13:41:03;;;;;;;0.70;0.70;;;8.90;99.90;;;;;;6122788;23;20159;-93
2022/03/22 13:43:44;;;;;;;1.30;0.70;;;8.90;99.90;;;;;;6107729;23;20174;-94
2022/03/22 13:46:17;;;;;;;0.43;0.43;;;8.90;99.90;;;;;;6108025;23;20206;-93
2022/03/22 13:48:51;;;;;;;0.70;0.70;;;8.90;99.90;;;;;;6107507;23;20191;-93
2022/03/22 13:51:24;;;;;;;0.50;0.50;;;8.90;99.90;;;;;;6108650;23;20175;-93
2022/03/22 13:53:57;;;;;;;0.60;0.60;;;8.90;99.90;;;;;;6106315;23;20179;-93
2022/03/22 13:56:34;;;;;;;0.93;0.70;;;8.90;99.90;;;;;;6103634;23;20171;-94
2022/03/22 13:59:12;;;;;;;0.60;0.60;;;8.90;99.90;;;;;;6122395;23;20279;-93
2022/03/22 14:01:49;;;;;;;0.80;0.80;;;8.90;99.90;;;;;;6123344;23;20215;-93
2022/03/22 14:04:20;;;;;;;0.63;0.60;;;9.00;99.90;;;;;;6118422;23;20167;-93
2022/03/22 14:06:52;;;;;;;2.30;0.80;;;9.00;99.90;;;;;;6108317;23;20210;-93
2022/03/22 14:09:23;;;;;;;1.03;1.00;;;9.00;99.90;;;;;;6105469;23;20183;-93
2022/03/22 14:11:54;;;;;;;0.70;0.70;;;9.00;99.90;;;;;;6105075;23;20171;-92
2022/03/22 14:14:25;;;;;;;0.90;0.80;;;9.00;99.90;;;;;;6105769;23;20197;-92
2022/03/22 14:17:05;;;;;;;0.90;0.80;;;9.00;99.90;;;;;;6111103;23;20179;-93
2022/03/22 14:19:39;;;;;;;1.13;0.90;;;9.10;99.90;;;;;;6109684;23;20179;-94
2022/03/22 14:22:11;;;;;;;0.80;0.80;;;9.10;99.90;;;;;;6116400;23;20215;-93
2022/03/22 14:24:42;;;;;;;0.77;0.77;;;9.10;99.90;;;;;;6116248;23;20194;-93
2022/03/22 14:27:15;;;;;;;0.70;0.70;;;9.20;99.90;;;;;;6118871;23;20209;-94
2022/03/22 14:29:46;;;;;;;0.60;0.60;;;9.30;99.90;;;;;;6106603;23;20498;-93
2022/03/22 14:32:19;;;;;;;1.43;0.67;;;9.20;99.90;;;;;;6104292;23;20178;-92
2022/03/22 14:37:40;;;;;;;0.93;0.73;;;9.20;99.90;;;;;;6078390;23;20692;-94
2022/03/22 14:40:13;;;;;;;0.77;0.77;;;9.20;99.90;;;;;;6110615;23;20175;-94